Time;durP1;ratioP1;P1;durP2;ratioP2;P2;SDS_P1;SDS_P2;PMS_P1;PMS_P2;Temp;Humidity;BMP_temperature;BMP_pressure;BME280_temperature;BME280_humidity;BME280_pressure;Samples;Min_cycle;Max_cycle;Signal;HPM_P1;HPM_P2
2023/07/09 00:02:04;;;;;;;2.85;1.60;;;24.20;60.50;;;;;;5015363;28;20036;-74
2023/07/09 00:04:30;;;;;;;1.92;1.52;;;24.20;60.60;;;;;;5015399;28;20539;-74
2023/07/09 00:07:00;;;;;;;1.60;1.50;;;24.20;60.50;;;;;;5015495;28;20028;-74
2023/07/09 00:09:26;;;;;;;2.00;1.80;;;24.20;60.50;;;;;;5015609;28;20083;-74
2023/07/09 00:11:51;;;;;;;1.67;1.58;;;24.20;60.50;;;;;;5015594;28;20544;-74
2023/07/09 00:14:17;;;;;;;2.83;1.70;;;24.20;60.50;;;;;;5015467;28;20037;-73
2023/07/09 00:16:44;;;;;;;1.58;1.48;;;24.20;60.50;;;;;;5015260;28;20026;-74
2023/07/09 00:19:23;;;;;;;1.75;1.65;;;24.20;60.40;;;;;;5015211;28;20125;-74
2023/07/09 00:21:53;;;;;;;2.03;1.73;;;24.20;60.40;;;;;;5014312;28;20048;-74
2023/07/09 00:24:18;;;;;;;1.40;1.30;;;24.20;60.40;;;;;;5015282;28;20160;-74
2023/07/09 00:26:46;;;;;;;1.65;1.55;;;24.20;60.50;;;;;;5015063;28;20112;-75
2023/07/09 00:29:12;;;;;;;1.55;1.45;;;24.20;60.40;;;;;;5015050;28;20558;-74
2023/07/09 00:31:40;;;;;;;2.95;1.60;;;24.20;60.40;;;;;;5015021;28;20038;-75
2023/07/09 00:34:08;;;;;;;1.70;1.60;;;24.20;60.30;;;;;;5013728;28;20025;-75
2023/07/09 00:36:34;;;;;;;3.90;1.88;;;24.20;60.40;;;;;;5014794;28;20488;-75
2023/07/09 00:39:04;;;;;;;1.95;1.65;;;24.10;60.30;;;;;;5014651;28;20152;-75
2023/07/09 00:41:33;;;;;;;2.08;1.80;;;24.20;60.40;;;;;;5013555;28;20025;-74
2023/07/09 00:44:24;;;;;;;2.03;1.42;;;24.10;60.30;;;;;;5015065;28;20053;-75
2023/07/09 00:46:50;;;;;;;2.00;1.80;;;24.10;60.20;;;;;;5014734;28;20056;-73
2023/07/09 00:49:29;;;;;;;2.83;1.60;;;24.10;60.30;;;;;;5014690;28;20038;-74
2023/07/09 00:51:57;;;;;;;2.28;1.95;;;24.10;60.20;;;;;;5014438;28;20030;-74
2023/07/09 00:54:31;;;;;;;1.85;1.67;;;24.10;60.30;;;;;;5013026;28;20037;-75
2023/07/09 00:57:07;;;;;;;1.70;1.55;;;24.10;60.30;;;;;;5013728;28;20051;-73
2023/07/09 00:59:33;;;;;;;1.80;1.70;;;24.10;60.30;;;;;;5014674;28;20041;-73
2023/07/09 01:02:02;;;;;;;2.90;1.67;;;24.10;60.20;;;;;;5014504;28;20112;-73
2023/07/09 01:04:28;;;;;;;2.58;1.75;;;24.10;60.20;;;;;;5013055;28;20369;-73
2023/07/09 01:06:56;;;;;;;1.83;1.73;;;24.10;60.20;;;;;;5013085;28;20022;-74
2023/07/09 01:09:23;;;;;;;1.70;1.60;;;24.10;60.10;;;;;;5013729;28;20121;-74
2023/07/09 01:11:49;;;;;;;1.65;1.55;;;24.10;60.20;;;;;;5014326;28;20057;-74
2023/07/09 01:14:19;;;;;;;1.60;1.50;;;24.10;60.70;;;;;;5014098;28;20061;-74
2023/07/09 01:16:57;;;;;;;1.70;1.60;;;24.10;60.00;;;;;;5014130;28;20076;-74
2023/07/09 01:19:43;;;;;;;1.73;1.58;;;24.10;60.00;;;;;;5012681;28;20496;-73
2023/07/09 01:22:11;;;;;;;1.70;1.52;;;24.10;60.00;;;;;;5014521;28;20021;-74
2023/07/09 01:25:01;;;;;;;1.55;1.45;;;24.10;60.00;;;;;;5014533;28;20038;-73
2023/07/09 01:27:39;;;;;;;1.52;1.42;;;24.10;59.80;;;;;;5014371;28;20029;-74
2023/07/09 01:30:14;;;;;;;2.58;1.52;;;24.10;59.80;;;;;;5014487;28;20101;-74
2023/07/09 01:32:45;;;;;;;1.80;1.70;;;24.10;59.90;;;;;;5014076;28;20465;-74
2023/07/09 01:35:13;;;;;;;1.88;1.60;;;24.10;59.90;;;;;;5014034;28;20024;-74
2023/07/09 01:37:39;;;;;;;2.25;1.90;;;24.10;59.90;;;;;;5014075;28;20025;-74
2023/07/09 01:40:09;;;;;;;1.60;1.50;;;24.10;59.90;;;;;;5014036;28;20030;-74
2023/07/09 01:42:37;;;;;;;2.25;1.75;;;24.10;59.90;;;;;;5014175;28;20030;-74
2023/07/09 01:45:04;;;;;;;2.97;1.50;;;24.10;59.90;;;;;;5013993;28;20034;-74
2023/07/09 01:47:30;;;;;;;1.83;1.50;;;24.10;59.90;;;;;;5013917;28;20052;-74
2023/07/09 01:49:57;;;;;;;1.48;1.38;;;24.10;60.50;;;;;;5012536;28;20379;-74
2023/07/09 01:52:25;;;;;;;1.92;1.73;;;24.10;59.80;;;;;;5013957;28;20022;-74
2023/07/09 01:54:51;;;;;;;2.75;1.85;;;24.10;59.80;;;;;;5013782;28;20088;-74
2023/07/09 01:57:25;;;;;;;2.03;1.35;;;24.10;59.90;;;;;;5013822;28;20372;-74
2023/07/09 01:59:54;;;;;;;1.92;1.50;;;24.10;59.70;;;;;;5012670;28;20033;-74
2023/07/09 02:02:23;;;;;;;2.38;1.75;;;24.10;59.80;;;;;;5014593;28;20022;-75
2023/07/09 02:04:51;;;;;;;1.70;1.60;;;24.10;59.80;;;;;;5017629;28;20030;-74
2023/07/09 02:07:18;;;;;;;1.80;1.70;;;24.10;59.80;;;;;;5017252;28;20088;-74
2023/07/09 02:09:44;;;;;;;2.78;1.70;;;24.10;59.70;;;;;;5000329;28;20026;-74
2023/07/09 02:12:11;;;;;;;1.95;1.70;;;24.10;59.70;;;;;;5017655;28;20026;-74
2023/07/09 02:14:37;;;;;;;1.67;1.58;;;24.00;59.60;;;;;;5017583;28;20030;-74
2023/07/09 02:17:03;;;;;;;1.63;1.52;;;24.10;59.70;;;;;;5017700;28;20044;-74
2023/07/09 02:19:29;;;;;;;2.63;1.65;;;24.00;59.60;;;;;;5017528;28;20034;-74
2023/07/09 02:21:56;;;;;;;3.10;1.80;;;24.00;59.60;;;;;;5017400;28;20084;-74
2023/07/09 02:24:25;;;;;;;1.80;1.70;;;24.00;59.50;;;;;;5017373;28;20030;-74
2023/07/09 02:26:54;;;;;;;2.58;1.70;;;24.00;59.60;;;;;;5017383;28;20033;-74
2023/07/09 02:29:20;;;;;;;1.90;1.52;;;24.00;59.50;;;;;;5017146;28;20034;-74
2023/07/09 02:31:48;;;;;;;2.47;1.60;;;24.00;59.50;;;;;;5015801;28;20025;-74
2023/07/09 02:34:14;;;;;;;1.80;1.50;;;24.00;59.40;;;;;;5015644;28;20060;-74
2023/07/09 02:36:42;;;;;;;3.10;1.70;;;24.00;59.40;;;;;;5017417;28;20038;-74
2023/07/09 02:39:13;;;;;;;1.80;1.70;;;24.00;59.50;;;;;;5017031;28;20126;-74
2023/07/09 02:41:41;;;;;;;1.70;1.60;;;24.00;59.50;;;;;;5017149;28;20361;-74
2023/07/09 02:44:08;;;;;;;2.53;1.80;;;24.00;59.50;;;;;;5017328;28;20518;-75
2023/07/09 02:46:34;;;;;;;1.75;1.45;;;24.00;59.40;;;;;;5017136;28;20091;-75
2023/07/09 02:49:00;;;;;;;1.48;1.38;;;24.00;59.40;;;;;;5015342;28;20033;-74
2023/07/09 02:51:29;;;;;;;1.83;1.70;;;24.00;59.40;;;;;;5015921;28;20037;-74
2023/07/09 02:53:56;;;;;;;2.10;1.70;;;24.00;59.40;;;;;;5015809;28;20033;-74
2023/07/09 02:56:23;;;;;;;1.80;1.70;;;24.10;59.40;;;;;;5015570;28;20058;-74
2023/07/09 02:58:50;;;;;;;1.45;1.20;;;24.10;59.30;;;;;;5016886;28;20105;-74
2023/07/09 03:01:16;;;;;;;1.50;1.40;;;24.10;59.30;;;;;;5016775;28;20036;-74
2023/07/09 03:03:41;;;;;;;2.72;1.58;;;24.10;59.20;;;;;;5016608;28;20022;-74
2023/07/09 03:06:07;;;;;;;3.05;1.58;;;24.00;59.20;;;;;;5016725;28;20022;-74
2023/07/09 03:08:33;;;;;;;2.65;1.65;;;24.10;59.30;;;;;;5016414;28;20117;-74
2023/07/09 03:10:59;;;;;;;1.70;1.60;;;24.10;59.30;;;;;;5016691;28;20113;-74
2023/07/09 03:13:25;;;;;;;1.80;1.70;;;24.10;59.30;;;;;;5016112;28;20076;-74
2023/07/09 03:15:57;;;;;;;4.30;1.58;;;24.10;59.30;;;;;;5016443;28;20076;-74
2023/07/09 03:18:24;;;;;;;2.05;1.70;;;24.10;59.20;;;;;;5014795;28;20091;-74
2023/07/09 03:20:50;;;;;;;1.70;1.60;;;24.10;59.20;;;;;;5014931;28;20022;-74
2023/07/09 03:23:16;;;;;;;1.20;1.10;;;24.10;59.20;;;;;;5016489;28;20030;-74
2023/07/09 03:25:43;;;;;;;1.98;1.65;;;24.20;59.20;;;;;;5014854;28;20029;-75
2023/07/09 03:28:09;;;;;;;1.70;1.60;;;24.20;59.00;;;;;;5016014;28;20029;-74
2023/07/09 03:30:34;;;;;;;1.63;1.52;;;24.20;59.10;;;;;;5015845;28;20022;-73
2023/07/09 03:33:00;;;;;;;2.95;1.40;;;24.20;59.00;;;;;;5016152;28;20185;-74
2023/07/09 03:35:26;;;;;;;1.67;1.58;;;24.20;58.90;;;;;;5016287;28;20026;-73
2023/07/09 03:37:52;;;;;;;2.90;1.48;;;24.20;59.00;;;;;;5015856;28;20109;-74
2023/07/09 03:40:22;;;;;;;2.47;1.80;;;24.20;59.00;;;;;;5016017;28;20057;-74
2023/07/09 03:42:48;;;;;;;1.95;1.40;;;24.20;58.90;;;;;;5015926;28;20097;-74
2023/07/09 03:45:14;;;;;;;1.67;1.58;;;24.30;58.90;;;;;;5015565;28;20118;-74
2023/07/09 03:47:39;;;;;;;1.55;1.45;;;24.30;58.80;;;;;;5016294;28;20140;-74
2023/07/09 03:50:08;;;;;;;1.30;1.20;;;24.30;58.80;;;;;;5015949;28;20068;-74
2023/07/09 03:52:34;;;;;;;2.08;1.70;;;24.30;58.70;;;;;;5014259;28;20030;-74
2023/07/09 03:55:00;;;;;;;1.92;1.60;;;24.40;58.70;;;;;;5015784;28;20075;-74
2023/07/09 03:57:26;;;;;;;2.08;1.58;;;24.40;58.70;;;;;;5015473;28;20530;-74
2023/07/09 03:59:52;;;;;;;3.13;1.58;;;24.40;58.60;;;;;;5015473;28;20115;-75
2023/07/09 04:02:18;;;;;;;1.60;1.50;;;24.40;58.50;;;;;;5015354;28;20053;-74
2023/07/09 04:04:44;;;;;;;1.65;1.55;;;24.40;58.50;;;;;;5015733;28;20025;-74
2023/07/09 04:07:09;;;;;;;1.70;1.45;;;24.40;58.50;;;;;;5015414;28;20062;-74
2023/07/09 04:09:35;;;;;;;3.80;2.00;;;24.50;58.40;;;;;;5015528;28;20408;-74
2023/07/09 04:12:03;;;;;;;2.17;1.50;;;24.50;58.30;;;;;;5015293;28;20022;-74
2023/07/09 04:14:29;;;;;;;1.40;1.30;;;24.50;58.20;;;;;;5014982;28;20057;-74
2023/07/09 04:16:54;;;;;;;2.45;1.60;;;24.60;58.20;;;;;;5015374;28;20069;-74
2023/07/09 04:19:20;;;;;;;1.70;1.50;;;24.60;58.20;;;;;;5015110;28;20404;-74
2023/07/09 04:21:46;;;;;;;2.00;1.80;;;24.60;58.10;;;;;;5015461;28;20445;-74
2023/07/09 04:24:11;;;;;;;2.80;1.60;;;24.60;58.10;;;;;;5015158;28;20212;-74
2023/07/09 04:26:39;;;;;;;2.33;1.80;;;24.70;58.10;;;;;;5014377;28;20054;-74
2023/07/09 04:29:06;;;;;;;2.88;1.50;;;24.70;58.00;;;;;;5014991;28;20472;-74
2023/07/09 04:31:31;;;;;;;3.05;1.65;;;24.70;57.80;;;;;;5015030;28;20030;-74
2023/07/09 04:33:57;;;;;;;1.67;1.55;;;24.70;57.80;;;;;;5013903;28;20113;-74
2023/07/09 04:36:23;;;;;;;1.40;1.30;;;24.80;57.80;;;;;;5013430;28;20025;-74
2023/07/09 04:38:49;;;;;;;1.50;1.40;;;24.80;57.70;;;;;;5015024;28;20041;-73
2023/07/09 04:41:15;;;;;;;1.75;1.65;;;24.80;57.70;;;;;;5014647;28;20373;-74
2023/07/09 04:43:40;;;;;;;2.28;1.83;;;24.70;57.60;;;;;;5014996;28;20045;-74
2023/07/09 04:46:06;;;;;;;2.05;1.50;;;24.70;57.70;;;;;;5014388;28;20479;-74
2023/07/09 04:48:31;;;;;;;1.90;1.73;;;24.70;57.70;;;;;;5015079;28;20488;-74
2023/07/09 04:50:59;;;;;;;2.33;1.75;;;24.80;57.70;;;;;;5015155;28;20108;-74
2023/07/09 04:53:25;;;;;;;2.10;1.67;;;24.90;57.60;;;;;;5014368;28;20524;-74
2023/07/09 04:55:51;;;;;;;1.60;1.50;;;24.90;57.50;;;;;;5014372;28;20061;-74
2023/07/09 04:58:18;;;;;;;1.58;1.45;;;24.90;57.40;;;;;;5014127;28;20038;-74
2023/07/09 05:00:44;;;;;;;2.38;1.60;;;24.90;57.40;;;;;;5014733;28;20026;-74
2023/07/09 05:03:09;;;;;;;1.83;1.60;;;24.90;57.30;;;;;;5014468;28;20361;-74
2023/07/09 05:05:35;;;;;;;2.60;1.70;;;25.00;57.30;;;;;;5014466;28;20030;-73
2023/07/09 05:08:01;;;;;;;1.70;1.60;;;24.90;57.30;;;;;;5014326;28;20452;-74
2023/07/09 05:10:26;;;;;;;2.40;1.90;;;25.00;57.20;;;;;;5012782;28;20029;-73
2023/07/09 05:12:54;;;;;;;2.00;1.58;;;25.00;57.30;;;;;;5014310;28;20399;-76
2023/07/09 05:15:22;;;;;;;3.17;1.73;;;25.00;57.20;;;;;;5014285;28;20037;-74
2023/07/09 05:17:47;;;;;;;1.73;1.60;;;25.00;57.20;;;;;;5014500;28;20116;-73
2023/07/09 05:20:14;;;;;;;2.22;1.50;;;25.10;57.20;;;;;;5014352;28;20221;-73
2023/07/09 05:22:40;;;;;;;1.70;1.60;;;25.10;57.20;;;;;;5014213;28;20026;-73
2023/07/09 05:25:06;;;;;;;1.70;1.52;;;25.20;57.20;;;;;;5014137;28;20376;-74
2023/07/09 05:27:32;;;;;;;2.05;1.70;;;25.20;57.10;;;;;;5014159;28;20482;-75
2023/07/09 05:29:58;;;;;;;1.77;1.67;;;25.20;57.10;;;;;;5013889;28;20109;-74
2023/07/09 05:32:24;;;;;;;2.20;1.50;;;25.20;57.10;;;;;;5013996;28;20025;-74
2023/07/09 05:34:49;;;;;;;1.65;1.55;;;25.20;57.00;;;;;;5014153;28;20018;-74
2023/07/09 05:37:15;;;;;;;1.48;1.38;;;25.30;57.10;;;;;;5014088;28;20478;-74
2023/07/09 05:39:40;;;;;;;2.72;1.55;;;25.30;57.00;;;;;;5013918;28;20042;-74
2023/07/09 05:42:07;;;;;;;2.03;1.75;;;25.30;57.00;;;;;;5014190;28;20022;-74
2023/07/09 05:44:32;;;;;;;1.77;1.60;;;25.30;56.90;;;;;;5014108;28;20059;-74
2023/07/09 05:46:58;;;;;;;1.63;1.42;;;25.40;57.00;;;;;;5012539;28;20527;-74
2023/07/09 05:49:24;;;;;;;1.98;1.50;;;25.40;56.90;;;;;;5014063;28;20465;-74
2023/07/09 05:51:49;;;;;;;1.73;1.63;;;25.40;56.90;;;;;;5013328;28;20026;-74
2023/07/09 05:54:15;;;;;;;1.77;1.58;;;25.40;56.90;;;;;;5012034;28;20037;-74
2023/07/09 05:56:41;;;;;;;1.70;1.60;;;25.50;56.90;;;;;;5013800;28;20018;-74
2023/07/09 05:59:06;;;;;;;1.75;1.65;;;25.50;56.80;;;;;;5013675;28;20488;-74
2023/07/09 06:01:32;;;;;;;4.68;1.70;;;25.50;56.80;;;;;;5012730;28;20038;-74
2023/07/09 06:03:58;;;;;;;2.03;1.80;;;25.50;56.80;;;;;;5013816;28;20151;-74
2023/07/09 06:06:24;;;;;;;2.80;1.98;;;25.50;56.70;;;;;;5013674;28;20026;-74
2023/07/09 06:08:50;;;;;;;2.13;1.75;;;25.50;56.70;;;;;;5013662;28;20108;-74
2023/07/09 06:11:17;;;;;;;2.42;1.58;;;25.60;57.30;;;;;;5013571;28;20030;-75
2023/07/09 06:13:43;;;;;;;2.63;2.08;;;25.60;56.70;;;;;;5012222;28;20061;-74
2023/07/09 06:16:08;;;;;;;1.65;1.55;;;25.60;56.60;;;;;;5013669;28;20053;-74
2023/07/09 06:18:34;;;;;;;1.80;1.70;;;25.60;56.60;;;;;;5013672;28;20485;-75
2023/07/09 06:21:02;;;;;;;1.80;1.63;;;25.70;56.70;;;;;;5013392;28;20465;-74
2023/07/09 06:23:29;;;;;;;2.00;1.80;;;25.70;56.60;;;;;;5013505;28;20104;-74
2023/07/09 06:25:54;;;;;;;1.88;1.75;;;25.70;56.50;;;;;;5013691;28;20488;-75
2023/07/09 06:28:25;;;;;;;2.75;1.90;;;25.70;56.50;;;;;;5013592;28;20033;-74
2023/07/09 06:30:51;;;;;;;1.73;1.63;;;25.70;56.40;;;;;;5013549;28;20372;-74
2023/07/09 06:33:19;;;;;;;1.88;1.60;;;25.70;56.40;;;;;;5013355;28;20034;-74
2023/07/09 06:35:54;;;;;;;2.42;1.77;;;25.70;56.40;;;;;;5013426;28;20050;-73
2023/07/09 06:38:21;;;;;;;1.83;1.60;;;25.70;56.30;;;;;;5013228;28;20073;-75
2023/07/09 06:40:46;;;;;;;2.33;1.75;;;25.80;56.50;;;;;;5013296;28;20097;-75
2023/07/09 06:43:12;;;;;;;4.00;1.73;;;25.80;56.40;;;;;;5013264;28;20030;-75
2023/07/09 06:45:38;;;;;;;1.75;1.65;;;25.90;56.50;;;;;;5012944;28;20038;-75
2023/07/09 06:48:04;;;;;;;1.80;1.70;;;25.90;56.40;;;;;;5013566;28;20543;-75
2023/07/09 06:50:33;;;;;;;1.80;1.70;;;25.90;56.30;;;;;;5016657;28;20045;-75
2023/07/09 06:52:58;;;;;;;1.90;1.77;;;25.90;56.20;;;;;;5017152;28;20026;-73
2023/07/09 06:55:25;;;;;;;1.73;1.60;;;26.00;56.30;;;;;;5017147;28;20389;-74
2023/07/09 06:57:51;;;;;;;3.88;1.70;;;25.90;56.20;;;;;;5016725;28;20036;-73
2023/07/09 07:00:16;;;;;;;1.85;1.75;;;26.00;56.20;;;;;;5016724;28;20037;-74
2023/07/09 07:02:42;;;;;;;2.35;1.90;;;26.00;56.10;;;;;;5016728;28;20065;-74
2023/07/09 07:05:08;;;;;;;2.10;1.90;;;26.10;56.10;;;;;;5016593;28;20026;-74
2023/07/09 07:07:34;;;;;;;2.67;1.80;;;26.10;56.10;;;;;;5016909;28;20036;-74
2023/07/09 07:09:59;;;;;;;2.22;1.80;;;26.10;56.00;;;;;;5016446;28;20033;-74
2023/07/09 07:12:29;;;;;;;2.33;1.60;;;26.10;55.90;;;;;;5015288;28;20456;-74
2023/07/09 07:14:55;;;;;;;2.33;1.92;;;26.20;55.90;;;;;;5016448;28;20080;-75
2023/07/09 07:17:22;;;;;;;2.40;1.98;;;26.20;55.90;;;;;;5016132;28;20053;-74
2023/07/09 07:19:47;;;;;;;3.92;2.15;;;26.20;55.80;;;;;;5016159;28;20038;-75
2023/07/09 07:22:13;;;;;;;2.65;2.10;;;26.30;55.90;;;;;;5016230;28;20026;-75
2023/07/09 07:24:39;;;;;;;2.90;1.90;;;26.30;56.40;;;;;;5016378;28;20030;-75
2023/07/09 07:27:05;;;;;;;2.70;1.80;;;26.40;55.80;;;;;;5015218;28;20022;-75
2023/07/09 07:29:30;;;;;;;3.13;1.80;;;26.40;55.60;;;;;;5015942;28;20033;-74
2023/07/09 07:31:56;;;;;;;1.98;1.77;;;26.40;55.50;;;;;;5015967;28;20030;-75
2023/07/09 07:34:22;;;;;;;2.00;1.80;;;26.40;55.50;;;;;;5015952;28;20120;-74
2023/07/09 07:36:49;;;;;;;1.80;1.70;;;26.50;55.50;;;;;;5015950;28;20480;-74
2023/07/09 07:39:15;;;;;;;2.05;1.85;;;26.50;55.40;;;;;;5015834;28;20037;-75
2023/07/09 07:41:41;;;;;;;2.03;1.80;;;26.60;55.30;;;;;;5016222;28;20506;-74
2023/07/09 07:44:07;;;;;;;2.90;1.88;;;26.50;55.10;;;;;;5015750;28;20029;-75
2023/07/09 07:46:33;;;;;;;2.40;1.98;;;26.50;55.10;;;;;;5015958;28;20380;-74
2023/07/09 07:48:59;;;;;;;2.28;2.08;;;26.50;55.20;;;;;;5015474;28;20036;-74
2023/07/09 07:51:25;;;;;;;3.00;1.85;;;26.50;55.20;;;;;;5015698;28;20025;-74
2023/07/09 07:53:51;;;;;;;2.45;1.95;;;26.50;55.20;;;;;;5014256;28;20025;-74
2023/07/09 07:56:17;;;;;;;2.13;1.92;;;26.60;55.30;;;;;;5015999;28;20042;-74
2023/07/09 07:58:43;;;;;;;2.42;2.22;;;26.70;55.30;;;;;;5015635;28;20034;-75
2023/07/09 08:01:09;;;;;;;2.30;2.10;;;26.70;55.10;;;;;;5014824;28;20116;-75
2023/07/09 08:03:35;;;;;;;2.00;1.80;;;26.70;55.10;;;;;;5015435;28;20057;-74
2023/07/09 08:06:00;;;;;;;2.00;1.80;;;26.80;55.20;;;;;;5015678;28;20368;-74
2023/07/09 08:08:26;;;;;;;1.88;1.77;;;26.80;55.10;;;;;;5015272;28;20030;-75
2023/07/09 08:11:00;;;;;;;1.73;1.63;;;26.90;55.10;;;;;;5015237;28;20037;-75
2023/07/09 08:13:26;;;;;;;3.13;2.00;;;26.90;55.00;;;;;;5015213;28;20461;-74
2023/07/09 08:15:52;;;;;;;1.90;1.80;;;26.90;55.10;;;;;;5015268;28;20056;-74
2023/07/09 08:18:17;;;;;;;2.15;1.90;;;26.90;55.10;;;;;;5015079;28;20034;-75
2023/07/09 08:20:44;;;;;;;2.05;1.90;;;26.90;55.10;;;;;;5015051;28;20036;-75
2023/07/09 08:23:10;;;;;;;3.13;1.95;;;26.90;55.00;;;;;;5014063;28;20032;-74
2023/07/09 08:25:36;;;;;;;1.98;1.80;;;27.00;55.00;;;;;;5015441;28;20113;-75
2023/07/09 08:28:01;;;;;;;2.50;1.90;;;27.00;55.00;;;;;;5015318;28;20040;-74
2023/07/09 08:30:27;;;;;;;2.00;1.80;;;27.10;55.00;;;;;;5014845;28;20109;-75
2023/07/09 08:32:53;;;;;;;1.70;1.60;;;27.10;54.90;;;;;;5015189;28;20034;-75
2023/07/09 08:35:18;;;;;;;1.83;1.73;;;27.10;54.80;;;;;;5015078;28;20030;-75
2023/07/09 08:37:44;;;;;;;1.80;1.70;;;27.20;54.80;;;;;;5014747;28;20026;-75
2023/07/09 08:40:14;;;;;;;1.80;1.65;;;27.20;54.70;;;;;;5014746;28;20388;-74
2023/07/09 08:42:52;;;;;;;1.90;1.80;;;27.20;54.70;;;;;;5013437;28;20117;-74
2023/07/09 08:45:39;;;;;;;2.13;1.92;;;27.20;54.60;;;;;;5014697;28;20037;-74
2023/07/09 08:48:13;;;;;;;2.42;2.10;;;27.30;54.40;;;;;;5015086;28;20092;-75
2023/07/09 08:50:47;;;;;;;1.92;1.80;;;27.40;54.80;;;;;;5014613;28;20083;-75
2023/07/09 08:53:35;;;;;;;1.83;1.73;;;27.40;54.70;;;;;;5014511;28;20065;-75
2023/07/09 08:56:02;;;;;;;3.63;1.80;;;27.40;54.20;;;;;;5014542;28;20026;-74
2023/07/09 08:58:32;;;;;;;2.17;1.92;;;27.40;54.50;;;;;;5013183;28;20384;-74
2023/07/09 09:01:05;;;;;;;3.03;2.00;;;27.50;54.50;;;;;;5014290;28;20427;-74
2023/07/09 09:03:44;;;;;;;3.00;1.60;;;27.40;54.40;;;;;;5014468;28;20026;-75
2023/07/09 09:06:22;;;;;;;2.08;1.70;;;27.50;54.30;;;;;;5012855;28;20275;-75
2023/07/09 09:09:03;;;;;;;1.90;1.80;;;27.50;54.20;;;;;;5013473;28;20030;-74
2023/07/09 09:11:45;;;;;;;2.10;1.90;;;27.50;53.70;;;;;;5013990;28;20036;-75
2023/07/09 09:14:39;;;;;;;2.00;1.90;;;27.60;54.20;;;;;;5014003;28;20022;-74
2023/07/09 09:17:14;;;;;;;1.90;1.77;;;27.60;53.40;;;;;;5011688;28;20111;-74
2023/07/09 09:19:53;;;;;;;1.83;1.73;;;27.60;54.10;;;;;;5014071;28;20275;-75
2023/07/09 09:22:26;;;;;;;2.25;1.60;;;27.70;54.00;;;;;;5014001;28;20029;-74
2023/07/09 09:25:02;;;;;;;1.80;1.50;;;27.70;54.00;;;;;;5013897;28;20112;-76
2023/07/09 09:27:27;;;;;;;1.77;1.67;;;27.70;53.90;;;;;;5014328;28;20030;-75
2023/07/09 09:29:53;;;;;;;1.67;1.58;;;27.70;53.80;;;;;;5014225;28;20139;-75
2023/07/09 09:32:30;;;;;;;2.28;1.73;;;27.80;53.70;;;;;;5014028;28;20456;-75
2023/07/09 09:34:56;;;;;;;3.08;1.88;;;27.80;53.20;;;;;;5012449;28;20026;-75
2023/07/09 09:37:32;;;;;;;1.60;1.50;;;27.80;53.40;;;;;;5013969;28;20029;-75
2023/07/09 09:39:59;;;;;;;1.70;1.60;;;27.90;53.20;;;;;;5012394;28;20472;-75
2023/07/09 09:42:25;;;;;;;2.13;1.90;;;27.90;53.20;;;;;;5014228;28;20080;-76
2023/07/09 09:44:54;;;;;;;2.10;1.90;;;27.90;53.20;;;;;;5013674;28;20042;-74
2023/07/09 09:47:20;;;;;;;2.38;1.60;;;28.00;53.20;;;;;;5013471;28;20476;-76
2023/07/09 09:49:46;;;;;;;1.65;1.55;;;28.10;53.10;;;;;;5013311;28;20045;-74
2023/07/09 09:52:19;;;;;;;2.20;1.80;;;28.10;53.00;;;;;;5013435;28;20046;-74
2023/07/09 09:54:53;;;;;;;1.95;1.73;;;28.20;52.90;;;;;;5013768;28;20120;-74
2023/07/09 09:57:22;;;;;;;2.75;1.67;;;28.20;52.70;;;;;;5013888;28;20018;-74
2023/07/09 09:59:48;;;;;;;1.77;1.67;;;28.20;52.60;;;;;;5013696;28;20037;-74
2023/07/09 10:02:22;;;;;;;1.60;1.50;;;28.30;52.50;;;;;;5013453;28;20148;-74
2023/07/09 10:04:48;;;;;;;1.60;1.50;;;28.30;52.30;;;;;;5012569;28;20041;-75
2023/07/09 10:07:36;;;;;;;1.48;1.38;;;28.40;52.20;;;;;;5012358;28;20383;-75
2023/07/09 10:10:08;;;;;;;2.20;1.90;;;28.40;52.00;;;;;;5013641;28;20045;-75
2023/07/09 10:12:45;;;;;;;1.63;1.52;;;28.50;51.90;;;;;;5013516;28;20037;-75
2023/07/09 10:15:28;;;;;;;1.65;1.50;;;28.60;51.70;;;;;;5014236;28;20072;-75
2023/07/09 10:18:04;;;;;;;1.60;1.50;;;28.60;50.80;;;;;;5013563;28;20120;-75
2023/07/09 10:20:51;;;;;;;2.45;1.58;;;28.60;51.30;;;;;;5013283;28;20526;-75
2023/07/09 10:23:27;;;;;;;1.52;1.38;;;28.60;50.40;;;;;;5014185;28;20028;-75
2023/07/09 10:26:05;;;;;;;1.45;1.35;;;28.60;51.10;;;;;;5017428;28;20026;-75
2023/07/09 10:29:03;;;;;;;1.42;1.33;;;28.70;51.00;;;;;;5017512;28;20109;-75
2023/07/09 10:31:31;;;;;;;1.52;1.42;;;28.70;50.60;;;;;;5017105;28;20088;-75
2023/07/09 10:34:24;;;;;;;1.50;1.23;;;28.70;50.60;;;;;;5017078;28;20022;-75
2023/07/09 10:37:11;;;;;;;2.25;1.50;;;28.70;50.10;;;;;;5016944;28;20034;-75
2023/07/09 10:39:47;;;;;;;1.55;1.45;;;28.70;49.30;;;;;;5016951;28;20062;-75
2023/07/09 10:42:45;;;;;;;1.58;1.48;;;28.70;49.50;;;;;;5015930;28;20415;-75
2023/07/09 10:45:14;;;;;;;1.55;1.33;;;28.80;49.40;;;;;;5016626;28;20052;-75
2023/07/09 10:47:44;;;;;;;2.00;1.50;;;28.70;49.90;;;;;;5016803;28;20046;-76
2023/07/09 10:50:18;;;;;;;1.75;1.33;;;28.70;49.70;;;;;;5016997;28;20056;-75
2023/07/09 10:52:51;;;;;;;1.65;1.42;;;28.70;49.70;;;;;;5016832;28;20357;-75
2023/07/09 10:55:43;;;;;;;1.42;1.17;;;28.70;49.70;;;;;;5015845;28;20049;-75
2023/07/09 10:58:21;;;;;;;2.30;1.42;;;28.80;49.20;;;;;;5016644;28;20029;-75
2023/07/09 11:00:46;;;;;;;2.45;1.75;;;28.80;48.90;;;;;;5016276;28;20037;-74
2023/07/09 11:03:27;;;;;;;1.80;1.40;;;28.70;49.30;;;;;;5016592;28;20034;-75
2023/07/09 11:05:53;;;;;;;1.65;1.40;;;28.60;49.10;;;;;;5015250;28;20029;-75
2023/07/09 11:08:39;;;;;;;1.60;1.50;;;28.60;49.40;;;;;;5016328;28;20040;-75
2023/07/09 11:11:10;;;;;;;1.40;1.30;;;28.70;48.80;;;;;;5014930;28;20026;-74
2023/07/09 11:13:42;;;;;;;1.20;1.10;;;28.60;49.00;;;;;;5016311;28;20026;-75
2023/07/09 11:16:14;;;;;;;2.00;1.08;;;28.60;49.00;;;;;;5016383;28;20046;-75
2023/07/09 11:18:40;;;;;;;2.80;1.58;;;28.60;48.80;;;;;;5015354;28;20454;-75
2023/07/09 11:21:17;;;;;;;1.65;1.42;;;28.60;48.90;;;;;;5016129;28;20068;-75
2023/07/09 11:23:51;;;;;;;1.40;1.17;;;28.60;48.60;;;;;;5014967;28;20452;-76
2023/07/09 11:26:30;;;;;;;2.03;1.45;;;28.60;48.60;;;;;;5015273;28;20417;-76
2023/07/09 11:29:02;;;;;;;1.83;1.63;;;28.60;48.10;;;;;;5014705;28;20120;-75
2023/07/09 11:31:46;;;;;;;1.63;1.52;;;28.60;48.10;;;;;;5015930;28;20026;-75
2023/07/09 11:34:14;;;;;;;1.95;1.55;;;28.50;47.20;;;;;;5016224;28;20026;-75
2023/07/09 11:36:50;;;;;;;2.50;1.45;;;28.50;48.40;;;;;;5015802;28;20037;-75
2023/07/09 11:39:21;;;;;;;1.10;1.10;;;28.50;47.60;;;;;;5015832;28;20034;-75
2023/07/09 11:41:47;;;;;;;1.95;1.35;;;28.50;48.10;;;;;;5015669;28;20430;-76
2023/07/09 11:44:19;;;;;;;1.20;1.10;;;28.50;48.00;;;;;;5015732;28;20034;-75
2023/07/09 11:47:17;;;;;;;2.22;1.40;;;28.50;47.50;;;;;;5014400;28;20065;-75
2023/07/09 11:49:42;;;;;;;3.35;1.35;;;28.50;46.10;;;;;;5013440;28;20040;-75
2023/07/09 11:52:10;;;;;;;1.50;1.40;;;28.50;47.60;;;;;;5015679;28;20026;-76
2023/07/09 11:54:37;;;;;;;1.27;1.17;;;28.60;48.10;;;;;;5014199;28;20022;-75
2023/07/09 11:57:08;;;;;;;1.02;0.98;;;28.70;47.30;;;;;;5015040;28;20033;-76
2023/07/09 11:59:39;;;;;;;1.90;1.30;;;28.70;47.20;;;;;;5015264;28;20044;-76
2023/07/09 12:02:05;;;;;;;1.50;1.40;;;28.80;47.00;;;;;;5015286;28;20096;-75
2023/07/09 12:04:34;;;;;;;1.35;1.25;;;28.80;46.90;;;;;;5015037;28;20026;-75
2023/07/09 12:07:02;;;;;;;1.75;1.50;;;28.90;46.90;;;;;;5013724;28;20460;-76
2023/07/09 12:09:37;;;;;;;1.73;1.60;;;28.90;46.60;;;;;;5013645;28;20026;-75
2023/07/09 12:12:03;;;;;;;1.40;1.30;;;28.90;46.50;;;;;;5015152;28;20032;-75
2023/07/09 12:14:28;;;;;;;2.28;1.40;;;28.90;46.70;;;;;;5014820;28;20104;-75
2023/07/09 12:16:54;;;;;;;1.75;1.42;;;29.00;46.80;;;;;;5014847;28;20029;-75
2023/07/09 12:19:22;;;;;;;2.25;1.20;;;29.00;46.80;;;;;;5014776;28;20037;-75
2023/07/09 12:21:51;;;;;;;1.75;1.23;;;29.10;46.70;;;;;;5013506;28;20030;-75
2023/07/09 12:24:21;;;;;;;1.10;1.10;;;29.10;46.70;;;;;;5015045;28;20033;-75
2023/07/09 12:27:00;;;;;;;1.30;1.20;;;29.10;46.70;;;;;;5015162;28;20069;-75
2023/07/09 12:29:34;;;;;;;1.55;1.13;;;29.20;46.30;;;;;;5014820;28;20061;-75
2023/07/09 12:32:04;;;;;;;1.67;1.20;;;29.20;46.60;;;;;;5013597;28;20148;-75
2023/07/09 12:34:31;;;;;;;3.08;1.40;;;29.20;46.60;;;;;;5013289;28;20034;-75
2023/07/09 12:36:58;;;;;;;1.60;1.23;;;29.20;46.60;;;;;;5013720;28;20052;-74
2023/07/09 12:39:26;;;;;;;4.43;1.10;;;29.20;46.60;;;;;;5014666;28;20037;-74
2023/07/09 12:41:55;;;;;;;1.60;1.50;;;29.20;46.60;;;;;;5014611;28;20030;-74
2023/07/09 12:44:23;;;;;;;1.45;1.20;;;29.30;46.50;;;;;;5013334;28;20396;-74
2023/07/09 12:46:52;;;;;;;1.60;1.40;;;29.30;46.50;;;;;;5014238;28;20054;-74
2023/07/09 12:49:23;;;;;;;1.55;1.45;;;29.30;46.40;;;;;;5013325;28;20361;-74
2023/07/09 12:51:49;;;;;;;1.75;1.40;;;29.30;46.30;;;;;;5014684;28;20030;-74
2023/07/09 12:54:18;;;;;;;1.88;1.60;;;29.40;46.40;;;;;;5014317;28;20033;-74
2023/07/09 12:56:44;;;;;;;2.63;1.45;;;29.50;46.40;;;;;;5014229;28;20102;-75
2023/07/09 12:59:20;;;;;;;1.83;1.67;;;29.50;46.40;;;;;;5014229;28;20072;-74